Yantley, Alabama
Current Conditions -  °F | °C
As of 6:58 PM on Tuesday 25 Nov 2014 (Local Time) from KMEI Reporting Station
Clear Clear  
Wind Chill: 44°   Ceiling: Unl
Heat Index: 47°   Visibility: 10mi
Dew Point: 28°   Wind: 7mph
Humidity: 48%   Direction: 350°N
Pressure: 30.18"   Gusts: NA
Location:  32.241°N, 88.3441°W
Report Text: KMEI 260058Z 35006KT 10SM CLR 08/M02 A3018 RMK AO2 SLP221 T00831022
Loading
Personal Weather Stations






























Interactive Weather Map New forecast layout! Learn more

10-Day Weather Forecast

Advertisements
Track Severe Weather on mobile